AYNZ/LAE METAR and TAF weather

Enter ICAO airport designator
Station Type Date Time Source
AYNZ METAR 2020/09/27 02:00 UTC NOAA

AYNZ 270200Z 07010KT 9999 SCT012 SCT035 BKN050 26/- Q1013 RMK


Station Type Date Time Source
AYNZ Decoded METAR 2020/09/27 02:00 UTC NOAA

Station name not available
Sep 26, 2020 - 10:00 PM EDT / 2020.09.27 0200 UTC
Wind: from the ENE (070 degrees) at 12 MPH (10 KT):0
Visibility: greater than 7 mile(s):0
Sky conditions: mostly cloudy
Pressure (altimeter): 29.91 in. Hg (1013 hPa)
ob: AYNZ 270200Z 07010KT 9999 SCT012 SCT035 BKN050 26/- Q1013 RMK
cycle: 2

Station Type Date Time Source
AYNZ TAF 2015/08/19 08:15 UTC NOAA

TAF AYNZ 190550Z 1908/1920 09015KT 9999 SCT020 SCT120
FM191400 VRB03KT 9999 BKN040 Q 1011 1014 1013 1010

Example: see airport list